Time;durP1;ratioP1;P1;durP2;ratioP2;P2;SDS_P1;SDS_P2;PMS_P1;PMS_P2;Temp;Humidity;BMP_temperature;BMP_pressure;BME280_temperature;BME280_humidity;BME280_pressure;Samples;Min_cycle;Max_cycle;Signal;HPM_P1;HPM_P2
2022/10/21 00:02:25;;;;;;;19.63;14.00;;;;;;;13.89;100.00;100668.19;5049473;28;20564;-56
2022/10/21 00:04:51;;;;;;;18.75;13.40;;;;;;;13.85;100.00;100660.41;5049536;28;20036;-56
2022/10/21 00:07:16;;;;;;;17.55;14.27;;;;;;;13.79;100.00;100660.03;5070019;28;20049;-56
2022/10/21 00:09:42;;;;;;;18.25;15.13;;;;;;;13.77;100.00;100657.50;5047822;28;20059;-56
2022/10/21 00:12:07;;;;;;;22.40;14.95;;;;;;;13.79;100.00;100660.88;5053116;28;20029;-56
2022/10/21 00:14:33;;;;;;;21.45;15.02;;;;;;;13.80;100.00;100669.78;5052552;28;20036;-56
2022/10/21 00:16:58;;;;;;;16.40;13.63;;;;;;;13.80;100.00;100664.41;5054817;28;20036;-56
2022/10/21 00:19:24;;;;;;;20.60;14.02;;;;;;;13.80;100.00;100662.59;5045290;28;20040;-56
2022/10/21 00:21:49;;;;;;;17.30;12.98;;;;;;;13.77;100.00;100657.50;5050812;28;20052;-56
2022/10/21 00:24:14;;;;;;;18.25;13.10;;;;;;;13.76;100.00;100652.25;5053287;28;20120;-56
2022/10/21 00:26:42;;;;;;;12.68;11.27;;;;;;;13.78;100.00;100651.16;5052457;28;20036;-56
2022/10/21 00:29:08;;;;;;;12.57;11.20;;;;;;;13.74;100.00;100636.34;5048230;28;20026;-56
2022/10/21 00:31:34;;;;;;;18.33;13.93;;;;;;;13.73;100.00;100639.13;5048580;28;20033;-56
2022/10/21 00:34:01;;;;;;;13.95;12.30;;;;;;;13.68;100.00;100644.84;5051549;28;20097;-56
2022/10/21 00:36:30;;;;;;;17.23;14.70;;;;;;;13.73;100.00;100647.16;5053388;28;20037;-56
2022/10/21 00:38:56;;;;;;;21.55;14.90;;;;;;;13.70;100.00;100640.22;5070211;28;20026;-56
2022/10/21 00:41:21;;;;;;;23.83;16.48;;;;;;;13.75;100.00;100646.06;5053149;28;20118;-56
2022/10/21 00:44:03;;;;;;;21.13;16.70;;;;;;;13.76;100.00;100649.56;5053001;28;20028;-56
2022/10/21 00:46:52;;;;;;;27.20;16.52;;;;;;;13.79;100.00;100642.16;5046222;28;20025;-56
2022/10/21 00:49:23;;;;;;;21.02;17.02;;;;;;;13.79;100.00;100652.84;5052867;28;20361;-56
2022/10/21 00:51:53;;;;;;;26.80;16.13;;;;;;;13.75;100.00;100648.72;5052021;28;20025;-56
2022/10/21 00:54:22;;;;;;;24.42;17.27;;;;;;;13.83;100.00;100642.78;5052871;28;20023;-56
2022/10/21 00:56:48;;;;;;;21.42;17.25;;;;;;;13.77;100.00;100638.78;5040841;28;20025;-56
2022/10/21 00:59:14;;;;;;;24.23;17.50;;;;;;;13.74;100.00;100620.31;5035492;28;20025;-56
2022/10/21 01:01:40;;;;;;;23.90;17.80;;;;;;;13.79;100.00;100630.63;5037195;28;20052;-56
2022/10/21 01:04:08;;;;;;;25.65;18.05;;;;;;;13.79;100.00;100622.59;5039367;28;20491;-56
2022/10/21 01:06:38;;;;;;;26.30;17.13;;;;;;;13.79;100.00;100623.44;5081776;28;20559;-55
2022/10/21 01:09:06;;;;;;;;;;;;;;;13.83;100.00;100619.56;5052353;28;20036;-56
2022/10/21 01:11:42;;;;;;;22.65;17.73;;;;;;;13.78;100.00;100610.22;5038913;28;19908;-56
2022/10/21 01:14:13;;;;;;;20.50;15.35;;;;;;;13.67;100.00;100615.56;5048566;28;20067;-56
2022/10/21 01:16:44;;;;;;;24.67;16.92;;;;;;;13.73;100.00;100612.41;5052510;28;20082;-55
2022/10/21 01:19:34;;;;;;;28.02;17.67;;;;;;;13.75;100.00;100610.47;5052136;28;20036;-56
2022/10/21 01:22:21;;;;;;;22.73;17.60;;;;;;;13.76;100.00;100601.47;5032288;28;20025;-56
2022/10/21 01:25:09;;;;;;;23.25;18.02;;;;;;;13.68;100.00;100591.41;5044776;28;20541;-56
2022/10/21 01:28:08;;;;;;;22.25;17.35;;;;;;;13.74;100.00;100593.59;5052482;28;20020;-56
2022/10/21 01:30:55;;;;;;;24.25;18.75;;;;;;;13.71;100.00;100595.66;5048862;28;20125;-56
2022/10/21 01:33:37;;;;;;;23.20;16.45;;;;;;;13.69;100.00;100589.59;5050418;28;20403;-56
2022/10/21 01:36:05;;;;;;;21.30;16.00;;;;;;;13.59;100.00;100576.13;5051711;28;20028;-56
2022/10/21 01:38:33;;;;;;;17.95;14.43;;;;;;;13.51;100.00;100576.72;5052515;28;20021;-56
2022/10/21 01:41:08;;;;;;;23.92;16.05;;;;;;;13.54;100.00;100575.63;5048769;28;20044;-56
2022/10/21 01:43:38;;;;;;;20.30;15.80;;;;;;;13.52;100.00;100573.06;5052169;28;20039;-56
2022/10/21 01:46:12;;;;;;;22.48;17.02;;;;;;;13.49;100.00;100549.25;5050311;28;20387;-56
2022/10/21 01:48:46;;;;;;;20.33;16.58;;;;;;;13.54;100.00;100563.09;5037164;28;20736;-56
2022/10/21 01:51:17;;;;;;;21.42;16.73;;;;;;;13.51;100.00;100554.50;5049201;28;20031;-56
2022/10/21 01:53:50;;;;;;;20.90;14.98;;;;;;;13.46;100.00;100559.34;5051467;28;20028;-56
2022/10/21 01:56:18;;;;;;;19.83;14.65;;;;;;;13.44;100.00;100561.28;5051079;28;20063;-56
2022/10/21 01:58:46;;;;;;;23.98;15.60;;;;;;;13.45;100.00;100547.81;5051720;28;20013;-56
2022/10/21 02:01:13;;;;;;;20.85;14.93;;;;;;;13.47;100.00;100547.69;5051868;28;20035;-56
2022/10/21 02:03:42;;;;;;;19.40;12.90;;;;;;;13.39;100.00;100545.63;5043985;28;20059;-56
2022/10/21 02:06:07;;;;;;;;;;;;;;;13.49;100.00;100548.41;5049072;28;20090;-56
2022/10/21 02:08:33;;;;;;;16.10;12.48;;;;;;;13.36;100.00;100554.75;5051190;28;20383;-56
2022/10/21 02:11:04;;;;;;;22.13;15.00;;;;;;;13.42;100.00;100547.22;5051139;28;20450;-56
2022/10/21 02:13:35;;;;;;;18.27;13.85;;;;;;;13.37;100.00;100542.22;5051218;28;20029;-56
2022/10/21 02:16:07;;;;;;;23.77;14.43;;;;;;;13.38;100.00;100528.78;5040917;28;20033;-56
2022/10/21 02:18:33;;;;;;;21.58;14.90;;;;;;;13.39;100.00;100533.13;5040029;28;20475;-56
2022/10/21 02:21:07;;;;;;;15.60;13.95;;;;;;;13.35;100.00;100525.47;5031260;28;20041;-56
2022/10/21 02:23:41;;;;;;;15.20;13.40;;;;;;;13.29;100.00;100521.47;5032171;28;20025;-56
2022/10/21 02:26:07;;;;;;;16.92;13.23;;;;;;;13.19;100.00;100525.81;5050634;28;20115;-56
2022/10/21 02:28:33;;;;;;;19.80;12.07;;;;;;;13.11;100.00;100529.09;5049261;28;20116;-56
2022/10/21 02:31:20;;;;;;;15.55;12.48;;;;;;;13.21;100.00;100531.91;5032099;28;20044;-56
2022/10/21 02:34:17;;;;;;;22.38;13.35;;;;;;;13.27;100.00;100538.59;5038260;28;20551;-56
2022/10/21 02:36:55;;;;;;;23.55;13.45;;;;;;;13.25;100.00;100543.19;5046323;28;20060;-56
2022/10/21 02:39:51;;;;;;;14.80;11.98;;;;;;;13.24;100.00;100537.00;5038793;28;20578;-56
2022/10/21 02:42:21;;;;;;;20.23;10.73;;;;;;;13.10;100.00;100537.22;5051164;28;20043;-56
2022/10/21 02:44:47;;;;;;;15.88;11.30;;;;;;;13.05;100.00;100531.41;5050743;28;20041;-56
2022/10/21 02:47:19;;;;;;;16.70;11.73;;;;;;;13.13;100.00;100532.50;5050879;28;20039;-56
2022/10/21 02:49:44;;;;;;;16.67;13.02;;;;;;;13.14;100.00;100517.31;5043416;28;20051;-56
2022/10/21 02:52:10;;;;;;;18.83;12.55;;;;;;;13.18;100.00;100524.97;5044981;28;20480;-56
2022/10/21 02:54:38;;;;;;;17.80;13.27;;;;;;;13.12;100.00;100509.44;5046411;28;20399;-56
2022/10/21 02:57:04;;;;;;;16.80;12.00;;;;;;;13.08;100.00;100512.47;5051978;28;20021;-56
2022/10/21 02:59:32;;;;;;;15.38;11.88;;;;;;;13.03;100.00;100514.63;5039250;28;20068;-56
2022/10/21 03:01:57;;;;;;;16.35;11.18;;;;;;;13.00;100.00;100504.19;5063601;28;20037;-56
2022/10/21 03:04:23;;;;;;;15.30;11.52;;;;;;;13.06;100.00;100509.94;5040215;28;20043;-56
2022/10/21 03:06:50;;;;;;;16.08;12.15;;;;;;;13.07;100.00;100514.28;5035289;28;20116;-56
2022/10/21 03:09:17;;;;;;;13.70;10.60;;;;;;;13.02;100.00;100519.13;5045726;28;20037;-56
2022/10/21 03:11:43;;;;;;;14.35;12.85;;;;;;;13.02;100.00;100515.63;5050751;28;20029;-56
2022/10/21 03:14:08;;;;;;;13.38;11.77;;;;;;;12.99;100.00;100513.19;5040845;28;20025;-56
2022/10/21 03:16:34;;;;;;;16.85;12.13;;;;;;;13.02;100.00;100507.59;5048454;28;20499;-56
2022/10/21 03:18:59;;;;;;;16.00;12.27;;;;;;;13.03;100.00;100507.50;5050403;28;20036;-56
2022/10/21 03:21:25;;;;;;;15.85;11.32;;;;;;;12.98;100.00;100514.16;5032582;28;20045;-56
2022/10/21 03:23:50;;;;;;;13.25;11.07;;;;;;;12.97;100.00;100513.31;5045572;28;20030;-56
2022/10/21 03:26:16;;;;;;;15.02;12.20;;;;;;;12.99;100.00;100518.53;5028692;28;20087;-57
2022/10/21 03:28:41;;;;;;;17.65;12.63;;;;;;;13.00;100.00;100528.22;5046113;28;20036;-56
2022/10/21 03:31:07;;;;;;;14.48;11.98;;;;;;;12.94;100.00;100524.22;5030384;28;20500;-56
2022/10/21 03:33:32;;;;;;;15.73;10.93;;;;;;;12.92;100.00;100523.50;5037706;28;20199;-56
2022/10/21 03:35:58;;;;;;;15.95;11.48;;;;;;;12.91;100.00;100521.78;5040249;28;21256;-56
2022/10/21 03:38:23;;;;;;;19.70;12.25;;;;;;;12.94;100.00;100519.75;5047913;28;20033;-56
2022/10/21 03:40:50;;;;;;;20.13;11.88;;;;;;;12.91;100.00;100508.44;5048922;28;20029;-56
2022/10/21 03:43:15;;;;;;;15.38;11.90;;;;;;;12.89;100.00;100505.91;5049582;28;20037;-56
2022/10/21 03:45:43;;;;;;;15.80;12.93;;;;;;;12.89;100.00;100521.91;5054263;28;20035;-56
2022/10/21 03:48:08;;;;;;;17.00;10.77;;;;;;;12.83;100.00;100514.41;5044526;28;20496;-56
2022/10/21 03:50:34;;;;;;;12.63;10.98;;;;;;;12.86;100.00;100503.47;5029722;28;20067;-56
2022/10/21 03:53:00;;;;;;;16.73;11.35;;;;;;;12.81;100.00;100507.47;5055251;28;20029;-56
2022/10/21 03:55:26;;;;;;;20.63;10.95;;;;;;;12.82;100.00;100498.50;5035384;28;20081;-56
2022/10/21 03:57:52;;;;;;;15.48;12.10;;;;;;;12.80;100.00;100495.09;5087432;28;20052;-56
2022/10/21 04:00:18;;;;;;;17.52;11.63;;;;;;;12.85;100.00;100495.56;5052168;28;20083;-56
2022/10/21 04:02:43;;;;;;;16.75;11.15;;;;;;;12.78;100.00;100492.53;5034963;28;20392;-56
2022/10/21 04:05:10;;;;;;;11.55;9.77;;;;;;;12.73;100.00;100492.91;5032408;28;20116;-55
2022/10/21 04:07:35;;;;;;;17.73;10.00;;;;;;;12.77;100.00;100506.88;5054637;28;20400;-56
2022/10/21 04:10:01;;;;;;;15.25;9.52;;;;;;;12.72;100.00;100511.72;5053080;28;20039;-56
2022/10/21 04:12:26;;;;;;;11.07;9.10;;;;;;;12.70;100.00;100508.28;5054667;28;20036;-56
2022/10/21 04:14:52;;;;;;;12.13;8.55;;;;;;;12.63;100.00;100504.41;5053553;28;20025;-56
2022/10/21 04:17:18;;;;;;;13.05;8.93;;;;;;;12.61;100.00;100498.34;5054709;28;20023;-56
2022/10/21 04:19:43;;;;;;;11.98;9.10;;;;;;;12.67;100.00;100508.53;5048320;28;20038;-56
2022/10/21 04:22:08;;;;;;;10.82;8.43;;;;;;;12.67;100.00;100513.88;5049600;28;20060;-56
2022/10/21 04:24:34;;;;;;;13.02;8.65;;;;;;;12.61;100.00;100504.53;5053189;28;20461;-56
2022/10/21 04:27:02;;;;;;;11.88;8.32;;;;;;;12.58;100.00;100502.09;5053399;28;20183;-56
2022/10/21 04:29:30;;;;;;;13.48;8.32;;;;;;;12.65;100.00;100502.50;5043306;28;20036;-56
2022/10/21 04:31:56;;;;;;;12.02;8.13;;;;;;;12.59;100.00;100511.81;5049182;28;20507;-56
2022/10/21 04:34:23;;;;;;;11.02;8.80;;;;;;;12.59;100.00;100508.28;5039246;28;20055;-56
2022/10/21 04:36:49;;;;;;;12.32;8.60;;;;;;;12.54;100.00;100510.47;5049420;28;20032;-56
2022/10/21 04:39:15;;;;;;;13.95;8.85;;;;;;;12.60;100.00;100515.31;5052864;28;20037;-56
2022/10/21 04:41:40;;;;;;;10.00;7.68;;;;;;;12.49;100.00;100505.47;5040777;28;20507;-56
2022/10/21 04:44:06;;;;;;;10.75;8.15;;;;;;;12.55;100.00;100520.16;5042910;28;20021;-56
2022/10/21 04:46:32;;;;;;;11.23;8.38;;;;;;;12.51;100.00;100522.22;5053253;28;20110;-56
2022/10/21 04:48:57;;;;;;;10.77;7.47;;;;;;;12.56;100.00;100530.72;5052157;28;20111;-56
2022/10/21 04:51:22;;;;;;;12.50;8.13;;;;;;;12.57;100.00;100516.41;5050078;28;20442;-56
2022/10/21 04:53:48;;;;;;;11.07;7.72;;;;;;;12.56;100.00;100509.38;5052404;28;20141;-56
2022/10/21 04:56:13;;;;;;;10.10;7.60;;;;;;;12.57;100.00;100502.22;5053540;28;20033;-56
2022/10/21 04:58:38;;;;;;;8.60;7.05;;;;;;;12.49;100.00;100500.97;5051754;28;20550;-56
2022/10/21 05:01:04;;;;;;;10.35;7.32;;;;;;;12.53;100.00;100509.63;5047326;28;20050;-56
2022/10/21 05:03:30;;;;;;;9.65;7.18;;;;;;;12.53;100.00;100506.06;5035306;28;20029;-56
2022/10/21 05:05:55;;;;;;;11.95;6.72;;;;;;;12.54;100.00;100507.78;5052785;28;20031;-56
2022/10/21 05:08:21;;;;;;;10.93;6.97;;;;;;;12.43;100.00;100501.44;5051322;28;20417;-56
2022/10/21 05:10:47;;;;;;;9.70;6.30;;;;;;;12.54;100.00;100499.78;5051510;28;20622;-56
2022/10/21 05:13:13;;;;;;;11.70;6.88;;;;;;;12.52;100.00;100507.06;5052053;28;20428;-56
2022/10/21 05:15:38;;;;;;;10.80;6.45;;;;;;;12.54;100.00;100505.97;5033985;28;20174;-56
2022/10/21 05:18:06;;;;;;;10.90;6.93;;;;;;;12.59;100.00;100502.94;5032507;28;20421;-56
2022/10/21 05:20:31;;;;;;;10.60;5.38;;;;;;;12.60;100.00;100502.00;5056808;28;20033;-56
2022/10/21 05:22:57;;;;;;;10.77;6.68;;;;;;;12.60;100.00;100496.66;5042981;28;20035;-56
2022/10/21 05:25:22;;;;;;;9.93;6.00;;;;;;;12.57;100.00;100496.88;5051883;28;20086;-56
2022/10/21 05:27:48;;;;;;;13.18;6.38;;;;;;;12.58;100.00;100493.25;5042385;28;20033;-56
2022/10/21 05:30:14;;;;;;;7.93;5.65;;;;;;;12.60;100.00;100489.50;5033291;28;20036;-56
2022/10/21 05:32:40;;;;;;;14.60;6.50;;;;;;;12.61;100.00;100490.34;5038957;28;20123;-56
2022/10/21 05:35:06;;;;;;;9.27;5.88;;;;;;;12.64;100.00;100487.44;5051427;28;20112;-56
2022/10/21 05:37:31;;;;;;;9.45;5.55;;;;;;;12.52;100.00;100478.56;5052178;28;20540;-56
2022/10/21 05:39:56;;;;;;;8.15;5.10;;;;;;;12.50;100.00;100468.03;5051483;28;20056;-56
2022/10/21 05:42:22;;;;;;;8.48;5.70;;;;;;;12.58;100.00;100469.22;5052463;28;20036;-56
2022/10/21 05:44:50;;;;;;;10.73;5.88;;;;;;;12.54;100.00;100465.13;5050673;28;20112;-56
2022/10/21 05:47:15;;;;;;;7.97;5.80;;;;;;;12.45;100.00;100464.84;5051686;28;20037;-56
2022/10/21 05:49:40;;;;;;;7.28;5.63;;;;;;;12.49;100.00;100466.31;5036618;28;20033;-56
2022/10/21 05:52:06;;;;;;;7.80;5.40;;;;;;;12.45;100.00;100456.84;5048368;28;20024;-56
2022/10/21 05:54:32;;;;;;;7.10;5.28;;;;;;;12.45;100.00;100456.84;5051126;28;20037;-56
2022/10/21 05:57:01;;;;;;;8.05;5.68;;;;;;;12.44;100.00;100463.16;5035287;28;20282;-56
2022/10/21 05:59:26;;;;;;;10.77;5.30;;;;;;;12.43;100.00;100468.59;5051327;28;20392;-56
2022/10/21 06:01:52;;;;;;;7.57;5.57;;;;;;;12.46;100.00;100469.22;5049599;28;20029;-56
2022/10/21 06:04:17;;;;;;;11.88;5.13;;;;;;;12.37;100.00;100467.25;5050423;28;20108;-56
2022/10/21 06:06:43;;;;;;;9.30;5.70;;;;;;;12.41;100.00;100465.19;5052739;28;20420;-56
2022/10/21 06:09:08;;;;;;;8.38;5.35;;;;;;;12.42;100.00;100465.09;5035345;28;20037;-56
2022/10/21 06:11:34;;;;;;;7.50;5.70;;;;;;;12.33;100.00;100460.47;5052213;28;20044;-56
2022/10/21 06:13:59;;;;;;;12.02;5.53;;;;;;;12.39;100.00;100460.00;5051675;28;20029;-56
2022/10/21 06:16:25;;;;;;;5.05;4.20;;;;;;;12.42;100.00;100462.41;5051398;28;20033;-56
2022/10/21 06:18:50;;;;;;;6.45;4.55;;;;;;;12.43;100.00;100458.78;5049844;28;20028;-55
2022/10/21 06:21:16;;;;;;;9.07;4.95;;;;;;;12.41;100.00;100458.06;5041027;28;20083;-55
2022/10/21 06:23:41;;;;;;;9.35;4.65;;;;;;;12.37;100.00;100455.75;5048956;28;20033;-56
2022/10/21 06:26:15;;;;;;;6.13;5.07;;;;;;;12.37;100.00;100456.59;5047964;28;20040;-56
2022/10/21 06:28:42;;;;;;;9.20;5.15;;;;;;;12.41;100.00;100462.53;5030395;28;20472;-55
2022/10/21 06:31:12;;;;;;;6.20;5.25;;;;;;;12.39;100.00;100460.00;5051494;28;20039;-56
2022/10/21 06:33:37;;;;;;;7.57;4.72;;;;;;;12.39;100.00;100461.81;5042360;28;20041;-56
2022/10/21 06:36:03;;;;;;;9.68;5.72;;;;;;;12.34;100.00;100456.81;5031857;28;20388;-56
2022/10/21 06:38:28;;;;;;;6.47;4.72;;;;;;;12.38;100.00;100468.97;5044886;28;20033;-56
2022/10/21 06:41:08;;;;;;;10.32;4.78;;;;;;;12.39;100.00;100473.31;5051621;28;20116;-56
2022/10/21 06:43:34;;;;;;;10.20;4.90;;;;;;;12.38;100.00;100476.97;5051657;28;20025;-55
2022/10/21 06:46:01;;;;;;;9.60;4.70;;;;;;;12.43;100.00;100487.28;5051522;28;20090;-55
2022/10/21 06:48:27;;;;;;;8.00;4.60;;;;;;;12.38;100.00;100478.75;5051596;28;20472;-56
2022/10/21 06:51:01;;;;;;;11.10;5.57;;;;;;;12.50;100.00;100492.03;5049451;28;20098;-55
2022/10/21 06:53:27;;;;;;;12.82;5.70;;;;;;;12.52;100.00;100497.22;5047389;28;20051;-55
2022/10/21 06:56:13;;;;;;;11.48;5.72;;;;;;;12.64;100.00;100498.94;5051056;28;20021;-55
2022/10/21 06:58:42;;;;;;;9.23;5.63;;;;;;;12.68;100.00;100505.75;5047581;28;20496;-55
2022/10/21 07:01:09;;;;;;;10.30;5.38;;;;;;;12.73;100.00;100508.94;5050342;28;20408;-55
2022/10/21 07:03:36;;;;;;;7.22;5.30;;;;;;;12.77;100.00;100514.88;5050858;28;20060;-55
2022/10/21 07:06:03;;;;;;;9.82;5.35;;;;;;;12.81;100.00;100523.50;5050974;28;20154;-55
2022/10/21 07:08:30;;;;;;;9.80;5.18;;;;;;;12.84;100.00;100524.09;5047849;28;20144;-56
2022/10/21 07:10:58;;;;;;;8.95;5.50;;;;;;;12.87;100.00;100528.34;5043958;28;20032;-55
2022/10/21 07:13:24;;;;;;;11.60;5.20;;;;;;;12.90;100.00;100528.09;5048063;28;20040;-55
2022/10/21 07:16:04;;;;;;;8.65;5.20;;;;;;;12.92;100.00;100536.84;5051879;28;20438;-55
2022/10/21 07:18:33;;;;;;;7.70;5.10;;;;;;;12.96;100.00;100540.97;5049780;28;20178;-55
2022/10/21 07:21:07;;;;;;;10.27;4.70;;;;;;;13.01;100.00;100529.94;5032071;28;20033;-55
2022/10/21 07:23:33;;;;;;;8.60;4.38;;;;;;;13.03;100.00;100534.19;5031528;28;20025;-56
2022/10/21 07:26:04;;;;;;;8.15;4.47;;;;;;;13.05;100.00;100539.41;5026479;28;20047;-55
2022/10/21 07:28:30;;;;;;;11.85;4.68;;;;;;;13.08;100.00;100537.34;5049388;28;20152;-55
2022/10/21 07:30:56;;;;;;;8.35;4.40;;;;;;;13.12;100.00;100536.13;5050521;28;20082;-56
2022/10/21 07:33:22;;;;;;;5.72;4.55;;;;;;;13.16;100.00;100537.59;5050925;28;20025;-55
2022/10/21 07:35:47;;;;;;;8.43;4.75;;;;;;;13.21;100.00;100533.69;5049947;28;20020;-55
2022/10/21 07:38:13;;;;;;;8.20;4.53;;;;;;;13.21;100.00;100541.69;5050764;28;20120;-55
2022/10/21 07:40:40;;;;;;;12.23;4.63;;;;;;;13.24;100.00;100547.69;5043186;28;20033;-55
2022/10/21 07:43:06;;;;;;;10.57;4.80;;;;;;;13.26;100.00;100552.91;5043619;28;20542;-55
2022/10/21 07:45:31;;;;;;;8.48;4.63;;;;;;;13.29;100.00;100556.19;5050458;28;20151;-55
2022/10/21 07:47:59;;;;;;;10.90;5.25;;;;;;;13.31;100.00;100553.41;5048454;28;20021;-55
2022/10/21 07:50:24;;;;;;;8.93;5.38;;;;;;;13.32;100.00;100552.44;5036309;28;20033;-55
2022/10/21 07:52:50;;;;;;;8.52;5.25;;;;;;;13.36;100.00;100559.25;5043823;28;20392;-55
2022/10/21 07:55:16;;;;;;;11.15;5.78;;;;;;;13.39;100.00;100561.66;5043533;28;20491;-55
2022/10/21 07:57:43;;;;;;;8.02;5.65;;;;;;;13.42;100.00;100568.59;5046848;28;20100;-55
2022/10/21 08:00:10;;;;;;;9.25;5.40;;;;;;;13.37;100.00;100551.09;5049338;28;20017;-55
2022/10/21 08:02:36;;;;;;;16.05;5.97;;;;;;;13.45;100.00;100555.00;5050523;28;20021;-55
2022/10/21 08:05:03;;;;;;;8.98;4.90;;;;;;;13.46;100.00;100560.19;5050107;28;20057;-55
2022/10/21 08:07:33;;;;;;;8.60;5.18;;;;;;;13.48;100.00;100558.25;5049282;28;20371;-56
2022/10/21 08:09:59;;;;;;;10.20;5.53;;;;;;;13.50;100.00;100550.97;5045013;28;20075;-55
2022/10/21 08:12:28;;;;;;;11.63;6.03;;;;;;;13.50;100.00;100550.97;5045344;28;20032;-56
2022/10/21 08:14:53;;;;;;;14.20;5.20;;;;;;;13.50;100.00;100550.09;5050345;28;20044;-56
2022/10/21 08:17:19;;;;;;;11.00;5.25;;;;;;;13.46;100.00;100544.16;5049803;28;20075;-55
2022/10/21 08:19:45;;;;;;;9.32;5.90;;;;;;;13.48;100.00;100544.91;5048812;28;20563;-56
2022/10/21 08:22:11;;;;;;;10.77;6.22;;;;;;;13.46;100.00;100548.66;5050325;28;20035;-56
2022/10/21 08:24:36;;;;;;;8.52;5.72;;;;;;;13.47;100.00;100561.03;5048878;28;20029;-56
2022/10/21 08:27:03;;;;;;;12.57;6.53;;;;;;;13.43;100.00;100571.13;5050693;28;20738;-55
2022/10/21 08:29:28;;;;;;;11.02;7.43;;;;;;;13.49;100.00;100580.47;5053804;28;20288;-56
2022/10/21 08:31:54;;;;;;;8.52;6.25;;;;;;;13.47;100.00;100564.59;5052551;28;20043;-55
2022/10/21 08:34:19;;;;;;;7.53;6.38;;;;;;;13.47;100.00;100574.41;5052363;28;20068;-55
2022/10/21 08:36:45;;;;;;;11.88;6.65;;;;;;;13.48;100.00;100568.09;5049516;28;20067;-55
2022/10/21 08:39:11;;;;;;;10.85;6.93;;;;;;;13.50;100.00;100571.47;5051855;28;20124;-55
2022/10/21 08:41:54;;;;;;;12.75;7.22;;;;;;;13.49;100.00;100575.13;5052537;28;20040;-55
2022/10/21 08:44:28;;;;;;;8.40;6.00;;;;;;;13.51;100.00;100591.91;5053625;28;20427;-55
2022/10/21 08:47:10;;;;;;;10.88;6.28;;;;;;;13.52;100.00;100581.06;5050867;28;20021;-55
2022/10/21 08:49:38;;;;;;;12.00;6.63;;;;;;;13.51;100.00;100571.38;5043579;28;20033;-55
2022/10/21 08:52:09;;;;;;;11.18;6.72;;;;;;;13.52;100.00;100580.22;5047564;28;20488;-55
2022/10/21 08:55:02;;;;;;;11.30;6.57;;;;;;;13.51;100.00;100581.22;5048589;28;20029;-55
2022/10/21 08:57:31;;;;;;;12.02;6.65;;;;;;;13.57;100.00;100597.59;5049063;28;20028;-56
2022/10/21 08:59:57;;;;;;;12.50;7.35;;;;;;;13.55;100.00;100614.72;5052004;28;20013;-55
2022/10/21 09:02:42;;;;;;;14.20;7.13;;;;;;;13.53;100.00;100595.28;5042580;28;20087;-55
2022/10/21 09:05:21;;;;;;;9.95;6.35;;;;;;;13.57;100.00;100594.09;5052214;28;20028;-55
2022/10/21 09:08:28;;;;;;;8.27;5.70;;;;;;;13.59;100.00;100593.00;5054135;28;20072;-55
2022/10/21 09:11:20;;;;;;;11.15;6.18;;;;;;;13.62;100.00;100591.91;5046250;28;20030;-55
2022/10/21 09:14:05;;;;;;;12.10;6.22;;;;;;;13.64;100.00;100597.94;5051262;28;20029;-55
2022/10/21 09:16:54;;;;;;;12.25;5.32;;;;;;;13.64;100.00;100587.25;5051379;28;20590;-55
2022/10/21 09:19:31;;;;;;;9.48;4.50;;;;;;;13.70;100.00;100576.06;5047718;28;20099;-54
2022/10/21 09:21:56;;;;;;;7.40;4.40;;;;;;;13.76;100.00;100585.44;5035987;28;20360;-54
2022/10/21 09:24:32;;;;;;;8.95;3.80;;;;;;;13.75;100.00;100581.91;5042636;28;20086;-55
2022/10/21 09:26:59;;;;;;;6.72;3.75;;;;;;;13.90;100.00;100587.00;5051094;28;20032;-54
2022/10/21 09:29:31;;;;;;;7.65;3.42;;;;;;;14.00;100.00;100590.59;5052740;28;20028;-54
2022/10/21 09:32:21;;;;;;;7.10;3.65;;;;;;;14.08;100.00;100591.69;5051557;28;20020;-55
2022/10/21 09:35:07;;;;;;;8.90;3.42;;;;;;;14.17;100.00;100589.22;5052106;28;20056;-54
2022/10/21 09:37:41;;;;;;;7.35;3.92;;;;;;;14.20;100.00;100576.44;5051952;28;20028;-55
2022/10/21 09:40:18;;;;;;;6.63;3.33;;;;;;;14.29;100.00;100578.38;5037226;28;21583;-55
2022/10/21 09:42:47;;;;;;;9.43;3.67;;;;;;;14.36;100.00;100578.72;5046977;28;20094;-55
2022/10/21 09:45:35;;;;;;;7.72;3.53;;;;;;;14.39;100.00;100585.63;5048528;28;20029;-54
2022/10/21 09:48:06;;;;;;;8.70;3.80;;;;;;;14.44;100.00;100583.41;5036531;28;20070;-54
2022/10/21 09:50:33;;;;;;;7.60;4.00;;;;;;;14.50;100.00;100586.44;5052349;28;20029;-55
2022/10/21 09:53:11;;;;;;;6.43;4.20;;;;;;;14.57;100.00;100589.47;5084548;28;20037;-54
2022/10/21 09:55:40;;;;;;;8.48;4.20;;;;;;;14.64;100.00;100587.13;5051574;28;20039;-55
2022/10/21 09:58:26;;;;;;;6.93;4.47;;;;;;;14.68;100.00;100591.25;5050495;28;20111;-55
2022/10/21 10:00:54;;;;;;;10.77;5.05;;;;;;;14.73;100.00;100587.19;5052377;28;20494;-53
2022/10/21 10:03:35;;;;;;;9.77;4.93;;;;;;;14.77;100.00;100596.69;5052974;28;20025;-54
2022/10/21 10:06:06;;;;;;;10.00;4.88;;;;;;;14.79;100.00;100588.50;5052050;28;20045;-54
2022/10/21 10:08:34;;;;;;;9.85;4.85;;;;;;;14.88;100.00;100589.53;5052023;28;20094;-55
2022/10/21 10:11:20;;;;;;;9.40;4.60;;;;;;;14.94;100.00;100580.97;5051866;28;20434;-54
2022/10/21 10:13:51;;;;;;;10.73;5.63;;;;;;;14.98;100.00;100588.63;5052460;28;20024;-54
2022/10/21 10:16:31;;;;;;;9.60;5.35;;;;;;;15.05;100.00;100597.00;5051174;28;20061;-54
2022/10/21 10:19:22;;;;;;;10.95;5.65;;;;;;;15.13;100.00;100607.91;5051986;28;20376;-54
2022/10/21 10:22:08;;;;;;;13.68;5.43;;;;;;;15.26;100.00;100606.84;5050869;28;20037;-55
2022/10/21 10:24:34;;;;;;;9.90;5.85;;;;;;;15.36;100.00;100607.75;5050301;28;20017;-54
2022/10/21 10:27:04;;;;;;;15.68;5.88;;;;;;;15.57;100.00;100608.53;5052056;28;20033;-53
2022/10/21 10:29:30;;;;;;;11.57;6.18;;;;;;;15.70;100.00;100599.44;5051873;28;20035;-54
2022/10/21 10:32:00;;;;;;;10.57;7.43;;;;;;;15.80;100.00;100606.53;5063127;28;20021;-54
2022/10/21 10:34:37;;;;;;;11.00;6.38;;;;;;;15.88;100.00;100609.41;5034581;28;20033;-55
2022/10/21 10:37:17;;;;;;;18.48;6.43;;;;;;;15.98;100.00;100601.38;5052051;28;20056;-54
2022/10/21 10:39:47;;;;;;;12.77;6.57;;;;;;;16.03;100.00;100609.84;5071019;28;20021;-53
2022/10/21 10:42:18;;;;;;;12.55;6.15;;;;;;;16.08;100.00;100604.91;5063368;28;20380;-55
2022/10/21 10:44:44;;;;;;;13.23;6.68;;;;;;;16.19;100.00;100605.78;5051598;28;20037;-55
2022/10/21 10:47:42;;;;;;;11.70;5.85;;;;;;;16.34;100.00;100613.28;5049742;28;20044;-53
2022/10/21 10:50:36;;;;;;;12.05;5.82;;;;;;;16.49;100.00;100608.34;5039445;28;20033;-53
2022/10/21 10:53:30;;;;;;;11.15;5.97;;;;;;;16.73;100.00;100612.44;5040378;28;20132;-55
2022/10/21 10:56:21;;;;;;;13.38;6.18;;;;;;;16.97;100.00;100612.88;5044483;28;20064;-55
2022/10/21 10:59:07;;;;;;;8.52;5.18;;;;;;;17.36;99.88;100599.34;5048561;28;20087;-55
2022/10/21 11:01:40;;;;;;;9.93;5.47;;;;;;;17.64;95.15;100596.66;5048048;28;20677;-55
2022/10/21 11:04:17;;;;;;;13.45;6.28;;;;;;;17.97;92.92;100597.97;5049924;28;20541;-55
2022/10/21 11:06:49;;;;;;;10.95;6.10;;;;;;;18.06;91.02;100602.44;5050008;28;20496;-55
2022/10/21 11:09:15;;;;;;;10.27;6.22;;;;;;;18.10;89.45;100586.81;5033091;28;20049;-55
2022/10/21 11:11:47;;;;;;;8.18;5.68;;;;;;;18.08;88.86;100580.72;5050064;28;20033;-55
2022/10/21 11:14:15;;;;;;;13.75;6.32;;;;;;;18.10;87.46;100578.75;5051160;28;20028;-55
2022/10/21 11:17:00;;;;;;;9.68;5.00;;;;;;;18.38;89.43;100576.81;5033621;28;20092;-55
2022/10/21 11:19:33;;;;;;;6.32;4.05;;;;;;;18.56;85.97;100566.91;5043424;28;20037;-55
2022/10/21 11:22:12;;;;;;;7.45;3.92;;;;;;;19.05;84.79;100575.34;5031741;28;20032;-55
2022/10/21 11:24:53;;;;;;;7.50;3.97;;;;;;;20.13;84.40;100583.81;5041602;28;20121;-55